createdAt,value
2022-08-09T00:00:30.803Z,19.02
2022-08-09T00:01:43.097Z,19.02
2022-08-09T00:02:32.050Z,19.00
2022-08-09T00:04:00.820Z,19.00
2022-08-09T00:04:34.975Z,19.02
2022-08-09T00:06:19.694Z,19.02
2022-08-09T00:06:32.072Z,19.02
2022-08-09T00:07:30.702Z,19.00
2022-08-09T00:08:33.117Z,19.02
2022-08-09T00:09:31.247Z,19.02
2022-08-09T00:10:30.684Z,19.04
2022-08-09T00:11:58.717Z,19.04
2022-08-09T00:12:34.791Z,19.04
2022-08-09T00:13:31.744Z,19.04
2022-08-09T00:14:38.156Z,19.00
2022-08-09T00:15:35.447Z,19.00
2022-08-09T00:16:36.796Z,19.00
2022-08-09T00:18:05.861Z,18.99
2022-08-09T00:18:34.943Z,18.99
2022-08-09T00:19:30.567Z,19.00
2022-08-09T00:20:31.569Z,18.99
2022-08-09T00:21:30.556Z,19.00
2022-08-09T00:22:35.116Z,19.00
2022-08-09T00:23:57.011Z,19.00
2022-08-09T00:24:31.521Z,19.00
2022-08-09T00:25:32.953Z,19.02
2022-08-09T00:26:33.073Z,19.04
2022-08-09T00:27:30.489Z,19.02
2022-08-09T00:28:31.510Z,19.00
2022-08-09T00:29:39.831Z,19.00
2022-08-09T00:30:31.456Z,18.99
2022-08-09T00:31:59.920Z,18.99
2022-08-09T00:32:31.451Z,18.96
2022-08-09T00:33:32.540Z,18.98
2022-08-09T00:34:33.485Z,18.99
2022-08-09T00:35:43.245Z,18.98
2022-08-09T00:36:31.383Z,18.98
2022-08-09T00:37:32.561Z,19.00
2022-08-09T00:38:30.378Z,18.99
2022-08-09T00:40:01.922Z,19.02
2022-08-09T00:40:31.413Z,19.02
2022-08-09T00:44:10.099Z,19.04
2022-08-09T00:44:10.711Z,19.08
2022-08-09T00:44:14.250Z,19.09
2022-08-09T00:44:31.709Z,19.11
2022-08-09T00:45:30.284Z,19.11
2022-08-09T00:46:56.126Z,19.11
2022-08-09T00:47:35.819Z,19.09
2022-08-09T00:48:31.262Z,19.08
2022-08-09T00:49:31.086Z,19.09
2022-08-09T00:50:30.254Z,19.08
2022-08-09T00:51:33.813Z,19.07
2022-08-09T00:52:31.288Z,19.04
2022-08-09T00:53:30.198Z,19.07
2022-08-09T00:54:35.370Z,19.07
2022-08-09T00:56:03.020Z,19.04
2022-08-09T00:56:31.169Z,19.07
2022-08-09T00:57:34.447Z,19.02
2022-08-09T00:58:31.643Z,19.04
2022-08-09T00:59:41.319Z,19.02
2022-08-09T01:00:31.134Z,19.02
2022-08-09T01:01:32.467Z,19.02
2022-08-09T01:02:31.313Z,19.04
2022-08-09T01:03:30.092Z,19.00
2022-08-09T01:04:30.091Z,19.00
2022-08-09T01:05:53.242Z,18.99
2022-08-09T01:06:35.364Z,18.98
2022-08-09T01:07:37.869Z,18.96
2022-08-09T01:08:31.062Z,18.96
2022-08-09T01:09:36.938Z,18.95
2022-08-09T01:10:31.015Z,18.95
2022-08-09T01:11:30.012Z,18.95
2022-08-09T01:12:30.252Z,18.96
2022-08-09T01:13:31.116Z,18.95
2022-08-09T01:14:30.970Z,18.96
2022-08-09T01:15:29.971Z,18.98
2022-08-09T01:16:29.956Z,18.98
2022-08-09T01:17:30.420Z,18.98
2022-08-09T01:18:31.494Z,18.98
2022-08-09T01:19:42.691Z,18.96
2022-08-09T01:20:30.902Z,18.96
2022-08-09T01:21:41.126Z,18.93
2022-08-09T01:22:31.076Z,18.95
2022-08-09T01:24:02.652Z,18.92
2022-08-09T01:24:30.902Z,18.93
2022-08-09T01:25:29.855Z,18.92
2022-08-09T01:26:29.846Z,18.89
2022-08-09T01:27:29.826Z,18.88
2022-08-09T01:28:29.837Z,18.86
2022-08-09T01:29:40.878Z,18.86
2022-08-09T01:30:46.679Z,18.83
2022-08-09T01:32:32.467Z,18.81
2022-08-09T01:32:34.146Z,18.80
2022-08-09T01:33:29.767Z,18.77
2022-08-09T01:34:29.776Z,18.75
2022-08-09T01:35:38.957Z,18.73
2022-08-09T01:36:30.752Z,18.73
2022-08-09T01:37:43.142Z,18.71
2022-08-09T01:38:30.708Z,18.70
2022-08-09T01:39:29.750Z,18.68
2022-08-09T01:40:29.717Z,18.66
2022-08-09T01:41:29.684Z,18.63
2022-08-09T01:42:29.791Z,18.63
2022-08-09T01:43:29.653Z,18.62
2022-08-09T01:44:29.644Z,18.62
2022-08-09T01:45:30.582Z,18.62
2022-08-09T01:46:29.646Z,18.60
2022-08-09T01:47:31.401Z,18.59
2022-08-09T01:48:31.534Z,18.58
2022-08-09T01:49:31.938Z,18.56
2022-08-09T01:50:36.937Z,18.56
2022-08-09T01:51:32.486Z,18.55
2022-08-09T01:52:29.964Z,18.53
2022-08-09T01:53:41.360Z,18.53
2022-08-09T01:54:32.929Z,18.52
2022-08-09T01:55:29.520Z,18.50
2022-08-09T01:56:29.532Z,18.49
2022-08-09T01:57:29.516Z,18.47
2022-08-09T01:58:30.487Z,18.45
2022-08-09T01:59:32.347Z,18.45
2022-08-09T02:00:35.452Z,18.43
2022-08-09T02:01:58.271Z,18.41
2022-08-09T02:02:31.455Z,18.41
2022-08-09T02:03:29.442Z,18.40
2022-08-09T02:04:29.420Z,18.41
2022-08-09T02:05:38.032Z,18.41
2022-08-09T02:06:30.412Z,18.40
2022-08-09T02:08:35.141Z,18.40
2022-08-09T02:08:41.054Z,18.40
2022-08-09T02:09:42.360Z,18.40
2022-08-09T02:10:30.474Z,18.41
2022-08-09T02:11:40.214Z,18.40
2022-08-09T02:12:30.679Z,18.40
2022-08-09T02:13:40.429Z,18.40
2022-08-09T02:14:30.310Z,18.41
2022-08-09T02:15:48.736Z,18.40
2022-08-09T02:16:33.926Z,18.40
2022-08-09T02:18:09.709Z,18.38
2022-08-09T02:18:30.261Z,18.38
2022-08-09T02:19:35.122Z,18.35
2022-08-09T02:20:32.966Z,18.35
2022-08-09T02:21:29.296Z,18.35
2022-08-09T02:22:38.519Z,18.35
2022-08-09T02:23:32.074Z,18.34
2022-08-09T02:24:30.218Z,18.34
2022-08-09T02:25:29.205Z,18.34
2022-08-09T02:26:29.205Z,18.33
2022-08-09T02:27:57.912Z,18.29
2022-08-09T02:28:30.145Z,18.29
2022-08-09T02:29:31.289Z,18.28
2022-08-09T02:30:29.128Z,18.26
2022-08-09T02:31:29.148Z,18.25
2022-08-09T02:32:29.179Z,18.23
2022-08-09T02:33:58.483Z,18.22
2022-08-09T02:34:40.802Z,18.22
2022-08-09T02:36:02.875Z,18.22
2022-08-09T02:36:30.058Z,18.19
2022-08-09T02:37:31.477Z,18.19
2022-08-09T02:38:29.794Z,18.20
2022-08-09T02:39:33.754Z,18.19
2022-08-09T02:40:30.428Z,18.19
2022-08-09T02:41:29.064Z,18.18
2022-08-09T02:42:29.001Z,18.18
2022-08-09T02:43:28.993Z,18.16
2022-08-09T02:44:29.316Z,18.15
2022-08-09T02:45:28.973Z,18.13
2022-08-09T02:46:28.990Z,18.13
2022-08-09T02:47:28.954Z,18.11
2022-08-09T02:48:31.183Z,18.11
2022-08-09T02:49:38.533Z,18.10
2022-08-09T02:50:29.909Z,18.08
2022-08-09T02:51:33.051Z,18.08
2022-08-09T02:52:30.008Z,18.08
2022-08-09T02:53:29.897Z,18.05
2022-08-09T02:54:28.888Z,18.05
2022-08-09T02:55:46.361Z,18.03
2022-08-09T02:56:29.882Z,18.03
2022-08-09T02:57:28.838Z,18.01
2022-08-09T02:58:32.734Z,18.01
2022-08-09T02:59:36.326Z,17.98
2022-08-09T03:00:29.830Z,17.98
2022-08-09T03:01:29.542Z,17.97
2022-08-09T03:02:29.928Z,17.97
2022-08-09T03:03:48.029Z,17.97
2022-08-09T03:04:29.832Z,17.97
2022-08-09T03:05:28.739Z,17.98
2022-08-09T03:06:29.064Z,17.97
2022-08-09T03:07:28.731Z,17.97
2022-08-09T03:08:28.733Z,17.97
2022-08-09T03:09:33.709Z,17.94
2022-08-09T03:10:29.798Z,17.94
2022-08-09T03:12:04.552Z,17.94
2022-08-09T03:12:29.730Z,17.95
2022-08-09T03:13:43.819Z,17.94
2022-08-09T03:14:29.644Z,17.92
2022-08-09T03:16:04.909Z,17.92
2022-08-09T03:16:29.627Z,17.92
2022-08-09T03:17:28.632Z,17.90
2022-08-09T03:18:31.025Z,17.90
2022-08-09T03:19:58.309Z,17.87
2022-08-09T03:20:29.850Z,17.87
2022-08-09T03:21:28.566Z,17.86
2022-08-09T03:22:30.364Z,17.85
2022-08-09T03:23:28.556Z,17.85
2022-08-09T03:24:42.707Z,17.83
2022-08-09T03:25:58.240Z,17.82
2022-08-09T03:26:31.862Z,17.80
2022-08-09T03:27:28.509Z,17.80
2022-08-09T03:28:29.496Z,17.80
2022-08-09T03:29:28.484Z,17.79
2022-08-09T03:30:33.599Z,17.78
2022-08-09T03:31:28.478Z,17.76
2022-08-09T03:32:28.458Z,17.74
2022-08-09T03:33:54.153Z,17.74
2022-08-09T03:34:29.431Z,17.74
2022-08-09T03:36:11.677Z,17.71
2022-08-09T03:36:29.413Z,17.70
2022-08-09T03:37:55.674Z,17.67
2022-08-09T03:38:30.542Z,17.65
2022-08-09T03:39:28.839Z,17.63
2022-08-09T03:40:31.088Z,17.60
2022-08-09T03:41:30.126Z,17.60
2022-08-09T03:42:30.909Z,17.59
2022-08-09T03:43:32.001Z,17.59
2022-08-09T03:44:28.310Z,17.59
2022-08-09T03:46:04.011Z,17.56
2022-08-09T03:46:30.361Z,17.54
2022-08-09T03:47:28.324Z,17.54
2022-08-09T03:48:30.699Z,17.54
2022-08-09T03:49:32.831Z,17.56
2022-08-09T03:50:32.047Z,17.54
2022-08-09T03:51:56.819Z,17.54
2022-08-09T03:52:29.308Z,17.54
2022-08-09T03:53:32.212Z,17.52
2022-08-09T03:54:31.368Z,17.51
2022-08-09T03:55:29.990Z,17.49
2022-08-09T03:56:29.177Z,17.51
2022-08-09T03:57:28.191Z,17.49
2022-08-09T03:58:28.376Z,17.49
2022-08-09T03:59:52.793Z,17.51
2022-08-09T04:00:29.224Z,17.48
2022-08-09T04:01:28.111Z,17.46
2022-08-09T04:02:30.274Z,17.44
2022-08-09T04:03:45.914Z,17.45
2022-08-09T04:04:36.331Z,17.44
2022-08-09T04:05:29.079Z,17.44
2022-08-09T04:06:28.060Z,17.42
2022-08-09T04:07:47.508Z,17.42
2022-08-09T04:08:29.739Z,17.42
2022-08-09T04:09:47.864Z,17.44
2022-08-09T04:10:30.441Z,17.42
2022-08-09T04:11:28.000Z,17.42
2022-08-09T04:12:30.800Z,17.39
2022-08-09T04:14:37.578Z,17.38
2022-08-09T04:14:53.223Z,17.36
2022-08-09T04:15:40.553Z,17.33
2022-08-09T04:16:28.951Z,17.33
2022-08-09T04:17:29.509Z,17.33
2022-08-09T04:18:28.308Z,17.31
2022-08-09T04:19:30.393Z,17.33
2022-08-09T04:20:29.015Z,17.34
2022-08-09T04:21:27.932Z,17.39
2022-08-09T04:22:28.025Z,17.42
2022-08-09T04:23:27.889Z,17.45
2022-08-09T04:24:27.875Z,17.46
2022-08-09T04:25:27.847Z,17.51
2022-08-09T04:26:35.208Z,17.54
2022-08-09T04:27:29.050Z,17.57
2022-08-09T04:28:33.711Z,17.63
2022-08-09T04:29:29.890Z,17.65
2022-08-09T04:30:28.607Z,17.71
2022-08-09T04:31:37.418Z,17.74
2022-08-09T04:32:31.480Z,17.78
2022-08-09T04:33:28.895Z,17.80
2022-08-09T04:34:30.607Z,17.82
2022-08-09T04:35:27.733Z,17.83
2022-08-09T04:36:27.737Z,17.83
2022-08-09T04:37:42.134Z,17.80
2022-08-09T04:38:28.730Z,17.80
2022-08-09T04:39:31.281Z,17.82
2022-08-09T04:40:36.330Z,17.83
2022-08-09T04:41:33.135Z,17.86
2022-08-09T04:42:28.706Z,17.89
2022-08-09T04:43:27.640Z,17.90
2022-08-09T04:44:28.691Z,17.95
2022-08-09T04:45:30.580Z,17.98
2022-08-09T04:46:56.891Z,18.00
2022-08-09T04:47:28.611Z,18.03
2022-08-09T04:48:33.185Z,18.03
2022-08-09T04:49:52.254Z,18.04
2022-08-09T04:50:31.902Z,18.04
2022-08-09T04:51:28.562Z,18.01
2022-08-09T04:52:27.848Z,18.00
2022-08-09T04:53:27.545Z,17.98
2022-08-09T04:54:27.572Z,17.98
2022-08-09T04:55:27.558Z,17.97
2022-08-09T04:56:28.517Z,17.97
2022-08-09T04:57:58.969Z,17.98
2022-08-09T04:58:29.066Z,17.98
2022-08-09T04:59:27.484Z,18.00
2022-08-09T05:00:31.932Z,18.00
2022-08-09T05:01:28.457Z,18.00
2022-08-09T05:02:27.708Z,18.03
2022-08-09T05:03:42.428Z,18.04
2022-08-09T05:04:30.631Z,18.07
2022-08-09T05:05:52.157Z,18.07
2022-08-09T05:06:29.829Z,18.08
2022-08-09T05:07:31.827Z,18.10
2022-08-09T05:08:27.388Z,18.10
2022-08-09T05:09:42.529Z,18.11
2022-08-09T05:10:28.388Z,18.13
2022-08-09T05:11:27.329Z,18.15
2022-08-09T05:12:28.365Z,18.18
2022-08-09T05:13:27.310Z,18.18
2022-08-09T05:14:27.323Z,18.20
2022-08-09T05:15:42.671Z,18.22
2022-08-09T05:16:31.644Z,18.22
2022-08-09T05:18:38.601Z,18.25
2022-08-09T05:18:55.194Z,18.23
2022-08-09T05:19:44.598Z,18.26
2022-08-09T05:20:29.987Z,18.28
2022-08-09T05:21:29.882Z,18.31
2022-08-09T05:23:50.616Z,18.34
2022-08-09T05:23:59.846Z,18.35
2022-08-09T05:24:28.227Z,18.35
2022-08-09T05:25:32.263Z,18.37
2022-08-09T05:26:35.761Z,18.37
2022-08-09T05:27:28.157Z,18.40
2022-08-09T05:28:27.160Z,18.40
2022-08-09T05:29:31.436Z,18.40
2022-08-09T05:30:27.155Z,18.40
2022-08-09T05:31:44.087Z,18.38
2022-08-09T05:32:30.044Z,18.35
2022-08-09T05:33:32.884Z,18.34
2022-08-09T05:34:31.245Z,18.31
2022-08-09T05:35:27.084Z,18.29
2022-08-09T05:36:28.910Z,18.28
2022-08-09T05:37:27.065Z,18.25
2022-08-09T05:38:28.023Z,18.23
2022-08-09T05:39:28.871Z,18.22
2022-08-09T05:40:27.050Z,18.20
2022-08-09T05:41:27.012Z,18.19
2022-08-09T05:42:28.627Z,18.19
2022-08-09T05:43:31.716Z,18.18
2022-08-09T05:44:29.099Z,18.20
2022-08-09T05:45:52.818Z,18.20
2022-08-09T05:46:27.959Z,18.20
2022-08-09T05:47:27.124Z,18.22
2022-08-09T05:48:27.842Z,18.22
2022-08-09T05:50:24.257Z,18.19
2022-08-09T05:50:43.951Z,18.22
2022-08-09T05:51:29.887Z,18.22
2022-08-09T05:52:27.896Z,18.23
2022-08-09T05:53:32.139Z,18.25
2022-08-09T05:54:27.916Z,18.23
2022-08-09T05:55:26.856Z,18.26
2022-08-09T05:56:26.854Z,18.26
2022-08-09T05:57:51.089Z,18.28
2022-08-09T05:58:27.822Z,18.28
2022-08-09T05:59:26.895Z,18.28
2022-08-09T06:00:26.806Z,18.28
2022-08-09T06:01:26.817Z,18.29
2022-08-09T06:02:27.893Z,18.29
2022-08-09T06:03:34.809Z,18.29
2022-08-09T06:04:35.065Z,18.33
2022-08-09T06:05:50.326Z,18.33
2022-08-09T06:06:27.736Z,18.35
2022-08-09T06:07:26.724Z,18.40
2022-08-09T06:08:26.712Z,18.41
2022-08-09T06:09:54.305Z,18.44
2022-08-09T06:10:27.724Z,18.45
2022-08-09T06:11:40.773Z,18.47
2022-08-09T06:12:27.667Z,18.49
2022-08-09T06:13:28.209Z,18.50
2022-08-09T06:14:26.660Z,18.53
2022-08-09T06:15:26.731Z,18.53
2022-08-09T06:16:26.652Z,18.55
2022-08-09T06:17:26.643Z,18.58
2022-08-09T06:18:27.629Z,18.56
2022-08-09T06:19:27.658Z,18.59
2022-08-09T06:20:27.590Z,18.62
2022-08-09T06:21:26.610Z,18.63
2022-08-09T06:22:26.636Z,18.66
2022-08-09T06:23:57.627Z,18.68
2022-08-09T06:24:27.540Z,18.68
2022-08-09T06:25:26.546Z,18.74
2022-08-09T06:26:28.518Z,18.77
2022-08-09T06:27:26.502Z,18.80
2022-08-09T06:28:31.978Z,18.83
2022-08-09T06:29:27.061Z,18.84
2022-08-09T06:30:26.508Z,18.88
2022-08-09T06:31:31.477Z,18.89
2022-08-09T06:32:58.927Z,18.92
2022-08-09T06:33:39.496Z,18.96
2022-08-09T06:34:29.804Z,18.99
2022-08-09T06:35:55.991Z,19.02
2022-08-09T06:36:29.818Z,19.04
2022-08-09T06:37:28.953Z,19.07
2022-08-09T06:38:32.010Z,19.08
2022-08-09T06:39:38.861Z,19.11
2022-08-09T06:40:27.423Z,19.14
2022-08-09T06:42:06.363Z,19.15
2022-08-09T06:42:28.514Z,19.18
2022-08-09T06:43:26.319Z,19.19
2022-08-09T06:44:27.322Z,19.22
2022-08-09T06:46:07.510Z,19.26
2022-08-09T06:46:40.347Z,19.29
2022-08-09T06:47:30.229Z,19.31
2022-08-09T06:48:30.560Z,19.36
2022-08-09T06:49:44.625Z,19.37
2022-08-09T06:50:27.262Z,19.40
2022-08-09T06:51:26.251Z,19.45
2022-08-09T06:52:26.287Z,19.48
2022-08-09T06:53:26.233Z,19.51
2022-08-09T06:54:26.361Z,19.52
2022-08-09T06:55:26.231Z,19.55
2022-08-09T06:56:30.988Z,19.58
2022-08-09T06:58:01.975Z,19.62
2022-08-09T06:58:40.785Z,19.64
2022-08-09T07:00:49.542Z,19.70
2022-08-09T07:00:52.321Z,19.67
2022-08-09T07:01:35.635Z,19.76
2022-08-09T07:02:27.146Z,19.81
2022-08-09T07:03:28.394Z,19.84
2022-08-09T07:04:26.959Z,19.88
2022-08-09T07:05:58.372Z,19.92
2022-08-09T07:06:29.629Z,19.96
2022-08-09T07:07:58.968Z,20.02
2022-08-09T07:08:27.056Z,20.06
2022-08-09T07:09:55.893Z,20.10
2022-08-09T07:10:31.283Z,20.13
2022-08-09T07:11:27.042Z,20.16
2022-08-09T07:12:38.563Z,20.19
2022-08-09T07:13:28.204Z,20.22
2022-08-09T07:14:26.372Z,20.26
2022-08-09T07:16:36.370Z,20.29
2022-08-09T07:16:42.914Z,20.31
2022-08-09T07:17:26.959Z,20.34
2022-08-09T07:18:26.948Z,20.36
2022-08-09T07:19:25.941Z,20.39
2022-08-09T07:20:26.000Z,20.43
2022-08-09T07:21:25.911Z,20.47
2022-08-09T07:22:34.453Z,20.50
2022-08-09T07:23:26.893Z,20.55
2022-08-09T07:24:31.383Z,20.58
2022-08-09T07:25:26.892Z,20.62
2022-08-09T07:26:25.967Z,20.65
2022-08-09T07:27:33.394Z,20.67
2022-08-09T07:28:28.295Z,20.69
2022-08-09T07:29:25.833Z,20.72
2022-08-09T07:30:32.748Z,20.75
2022-08-09T07:31:26.807Z,20.80
2022-08-09T07:32:32.303Z,20.82
2022-08-09T07:33:26.784Z,20.84
2022-08-09T07:34:26.764Z,20.88
2022-08-09T07:35:25.845Z,20.93
2022-08-09T07:36:25.801Z,20.95
2022-08-09T07:37:25.771Z,20.97
2022-08-09T07:38:25.767Z,20.99
2022-08-09T07:39:42.147Z,21.02
2022-08-09T07:40:27.278Z,21.05
2022-08-09T07:41:26.714Z,21.07
2022-08-09T07:42:32.506Z,21.09
2022-08-09T07:43:29.143Z,21.12
2022-08-09T07:44:32.959Z,21.17
2022-08-09T07:45:39.449Z,21.21
2022-08-09T07:46:27.706Z,21.22
2022-08-09T07:47:25.676Z,21.27
2022-08-09T07:48:30.422Z,21.32
2022-08-09T07:49:26.619Z,21.33
2022-08-09T07:50:33.015Z,21.37
2022-08-09T07:52:04.714Z,21.40
2022-08-09T07:52:26.567Z,21.45
2022-08-09T07:54:01.620Z,21.48
2022-08-09T07:54:30.162Z,21.51
2022-08-09T07:55:28.650Z,21.55
2022-08-09T07:56:26.615Z,21.58
2022-08-09T07:57:33.868Z,21.60
2022-08-09T07:58:26.903Z,21.62
2022-08-09T07:59:45.415Z,21.66
2022-08-09T08:00:36.663Z,21.67
2022-08-09T08:01:33.005Z,21.70
2022-08-09T08:02:26.597Z,21.75
2022-08-09T08:03:26.772Z,21.77
2022-08-09T08:04:31.460Z,21.80
2022-08-09T08:05:27.400Z,21.85
2022-08-09T08:06:31.672Z,21.88
2022-08-09T08:08:44.262Z,21.91
2022-08-09T08:09:00.564Z,21.92
2022-08-09T08:09:38.618Z,21.96
2022-08-09T08:10:27.334Z,21.99
2022-08-09T08:12:25.103Z,22.04
2022-08-09T08:12:36.693Z,22.07
2022-08-09T08:13:26.348Z,22.07
2022-08-09T08:14:26.329Z,22.08
2022-08-09T08:15:25.349Z,22.11
2022-08-09T08:16:29.609Z,22.13
2022-08-09T08:17:52.103Z,22.15
2022-08-09T08:18:26.284Z,22.18
2022-08-09T08:19:29.217Z,22.22
2022-08-09T08:20:29.040Z,22.26
2022-08-09T08:21:25.241Z,22.29
2022-08-09T08:22:28.513Z,22.30
2022-08-09T08:23:27.265Z,22.33
2022-08-09T08:24:25.236Z,22.36
2022-08-09T08:25:44.736Z,22.39
2022-08-09T08:26:42.006Z,22.41
2022-08-09T08:27:26.228Z,22.44
2022-08-09T08:28:25.973Z,22.44
2022-08-09T08:29:28.030Z,22.45
2022-08-09T08:30:25.153Z,22.45
2022-08-09T08:31:25.137Z,22.48
2022-08-09T08:32:52.304Z,22.51
2022-08-09T08:33:26.151Z,22.54
2022-08-09T08:34:26.110Z,22.59
2022-08-09T08:35:25.127Z,22.62
2022-08-09T08:36:28.761Z,22.66
2022-08-09T08:37:25.173Z,22.66
2022-08-09T08:38:26.058Z,22.69
2022-08-09T08:39:25.149Z,22.70
2022-08-09T08:40:25.618Z,22.73
2022-08-09T08:41:25.063Z,22.75
2022-08-09T08:42:32.114Z,22.75
2022-08-09T08:43:26.495Z,22.78
2022-08-09T08:44:28.881Z,22.78
2022-08-09T08:45:37.040Z,22.81
2022-08-09T08:46:32.655Z,22.81
2022-08-09T08:47:26.082Z,22.83
2022-08-09T08:48:29.165Z,22.84
2022-08-09T08:49:33.395Z,22.88
2022-08-09T08:50:26.295Z,22.91
2022-08-09T08:51:24.934Z,22.96
2022-08-09T08:52:57.567Z,22.99
2022-08-09T08:53:32.213Z,23.03
2022-08-09T08:54:30.159Z,23.10
2022-08-09T08:55:24.904Z,23.15
2022-08-09T08:56:28.345Z,23.21
2022-08-09T08:57:24.867Z,23.27
2022-08-09T08:58:27.332Z,23.36
2022-08-09T08:59:28.138Z,23.39
2022-08-09T09:00:27.660Z,23.43
2022-08-09T09:01:35.441Z,23.46
2022-08-09T09:02:31.445Z,23.48
2022-08-09T09:03:37.093Z,23.51
2022-08-09T09:04:27.235Z,23.54
2022-08-09T09:05:32.980Z,23.55
2022-08-09T09:06:25.808Z,23.58
2022-08-09T09:07:24.787Z,23.61
2022-08-09T09:08:30.121Z,23.65
2022-08-09T09:09:58.148Z,23.69
2022-08-09T09:10:25.728Z,23.74
2022-08-09T09:11:24.700Z,23.76
2022-08-09T09:12:24.697Z,23.80
2022-08-09T09:13:24.690Z,23.81
2022-08-09T09:14:25.701Z,23.86
2022-08-09T09:15:28.395Z,23.88
2022-08-09T09:16:30.195Z,23.92
2022-08-09T09:17:25.663Z,23.93
2022-08-09T09:18:25.625Z,23.95
2022-08-09T09:19:41.762Z,23.98
2022-08-09T09:20:25.846Z,23.99
2022-08-09T09:21:26.037Z,24.02
2022-08-09T09:22:28.651Z,24.03
2022-08-09T09:23:37.770Z,24.05
2022-08-09T09:24:26.565Z,24.05
2022-08-09T09:26:01.105Z,24.05
2022-08-09T09:26:25.916Z,24.06
2022-08-09T09:28:04.986Z,24.10
2022-08-09T09:29:02.590Z,24.11
2022-08-09T09:29:25.507Z,24.14
2022-08-09T09:30:40.770Z,24.17
2022-08-09T09:32:04.659Z,24.23
2022-08-09T09:32:34.471Z,24.28
2022-08-09T09:33:26.417Z,24.32
2022-08-09T09:34:28.925Z,24.38
2022-08-09T09:35:24.460Z,24.40
2022-08-09T09:36:24.435Z,24.42
2022-08-09T09:37:24.592Z,24.47
2022-08-09T09:38:27.796Z,24.48
2022-08-09T09:39:42.677Z,24.53
2022-08-09T09:40:25.462Z,24.58
2022-08-09T09:41:25.009Z,24.61
2022-08-09T09:42:30.753Z,24.65
2022-08-09T09:43:25.352Z,24.69
2022-08-09T09:44:25.330Z,24.74
2022-08-09T09:45:26.155Z,24.77
2022-08-09T09:46:42.549Z,24.84
2022-08-09T09:47:25.322Z,24.86
2022-08-09T09:48:24.294Z,24.89
2022-08-09T09:49:49.838Z,24.96
2022-08-09T09:50:25.308Z,24.99
2022-08-09T09:51:38.190Z,25.04
2022-08-09T09:52:37.319Z,25.08
2022-08-09T09:53:57.611Z,25.11
2022-08-09T09:54:26.183Z,25.16
2022-08-09T09:55:31.287Z,25.21
2022-08-09T09:56:31.453Z,25.25
2022-08-09T09:58:02.569Z,25.29
2022-08-09T09:58:25.217Z,25.32
2022-08-09T09:59:29.000Z,25.32
2022-08-09T10:00:26.435Z,25.33
2022-08-09T10:01:37.432Z,25.38
2022-08-09T10:02:25.146Z,25.43
2022-08-09T10:03:24.220Z,25.46
2022-08-09T10:04:30.958Z,25.51
2022-08-09T10:05:27.155Z,25.53
2022-08-09T10:06:25.094Z,25.58
2022-08-09T10:07:24.201Z,25.60
2022-08-09T10:08:27.837Z,25.65
2022-08-09T10:09:24.350Z,25.68
2022-08-09T10:10:24.083Z,25.72
2022-08-09T10:12:00.014Z,25.75
2022-08-09T10:12:28.678Z,25.77
2022-08-09T10:13:43.413Z,25.80
2022-08-09T10:14:27.756Z,25.83
2022-08-09T10:15:51.113Z,25.84
2022-08-09T10:16:57.133Z,25.87
2022-08-09T10:17:50.568Z,25.88
2022-08-09T10:18:24.953Z,25.88
2022-08-09T10:19:23.978Z,25.91
2022-08-09T10:20:27.543Z,25.93
2022-08-09T10:21:24.936Z,25.95
2022-08-09T10:22:29.334Z,25.96
2022-08-09T10:23:24.918Z,25.98
2022-08-09T10:24:25.528Z,25.99
2022-08-09T10:25:24.891Z,26.02
2022-08-09T10:26:24.883Z,26.03
2022-08-09T10:27:24.989Z,26.03
2022-08-09T10:28:24.891Z,26.07
2022-08-09T10:30:23.521Z,26.10
2022-08-09T10:32:37.506Z,26.19
2022-08-09T10:32:40.417Z,26.22
2022-08-09T10:34:08.013Z,26.28
2022-08-09T10:34:32.915Z,26.31
2022-08-09T10:35:24.780Z,26.36
2022-08-09T10:36:23.779Z,26.33
2022-08-09T10:37:23.780Z,26.34
2022-08-09T10:38:54.443Z,26.34
2022-08-09T10:39:26.958Z,26.36
2022-08-09T10:40:32.513Z,26.36
2022-08-09T10:41:24.724Z,26.34
2022-08-09T10:42:26.925Z,26.33
2022-08-09T10:43:23.700Z,26.33
2022-08-09T10:44:24.736Z,26.31
2022-08-09T10:45:23.682Z,26.31
2022-08-09T10:46:26.729Z,26.33
2022-08-09T10:48:17.337Z,26.34
2022-08-09T10:48:30.265Z,26.37
2022-08-09T10:49:24.668Z,26.40
2022-08-09T10:50:30.917Z,26.41
2022-08-09T10:51:29.813Z,26.44
2022-08-09T10:52:28.723Z,26.47
2022-08-09T10:53:23.590Z,26.53
2022-08-09T10:54:23.591Z,26.59
2022-08-09T10:55:23.653Z,26.66
2022-08-09T10:56:23.545Z,26.68
2022-08-09T10:57:23.549Z,26.71
2022-08-09T10:58:25.556Z,26.70
2022-08-09T10:59:23.571Z,26.71
2022-08-09T11:00:24.535Z,26.73
2022-08-09T11:03:11.361Z,26.73
2022-08-09T11:03:14.733Z,26.73
2022-08-09T11:03:27.860Z,26.74
2022-08-09T11:04:31.322Z,26.75
2022-08-09T11:05:25.153Z,26.75
2022-08-09T11:06:24.471Z,26.75
2022-08-09T11:07:23.432Z,26.75
2022-08-09T11:08:30.231Z,26.75
2022-08-09T11:09:24.442Z,26.74
2022-08-09T11:10:26.772Z,26.75
2022-08-09T11:11:24.442Z,26.78
2022-08-09T11:12:26.463Z,26.78
2022-08-09T11:13:54.556Z,26.80
2022-08-09T11:14:28.201Z,26.81
2022-08-09T11:15:23.785Z,26.81
2022-08-09T11:16:35.156Z,26.81
2022-08-09T11:17:24.340Z,26.83
2022-08-09T11:18:23.319Z,26.85
2022-08-09T11:19:23.348Z,26.89
2022-08-09T11:20:24.348Z,26.89
2022-08-09T11:21:23.283Z,26.89
2022-08-09T11:22:24.535Z,26.90
2022-08-09T11:23:29.839Z,26.92
2022-08-09T11:24:24.841Z,26.93
2022-08-09T11:25:25.882Z,26.96
2022-08-09T11:26:23.229Z,27.00
2022-08-09T11:27:52.888Z,27.03
2022-08-09T11:28:30.486Z,27.07
2022-08-09T11:30:06.345Z,27.05
2022-08-09T11:30:33.406Z,27.08
2022-08-09T11:31:34.190Z,27.08
2022-08-09T11:32:24.160Z,27.11
2022-08-09T11:33:23.211Z,27.11
2022-08-09T11:34:23.145Z,27.10
2022-08-09T11:35:35.006Z,27.10
2022-08-09T11:36:30.318Z,27.07
2022-08-09T11:37:24.105Z,27.05
2022-08-09T11:38:32.308Z,27.05
2022-08-09T11:39:24.158Z,27.07
2022-08-09T11:40:23.078Z,27.10
2022-08-09T11:41:23.121Z,27.10
2022-08-09T11:42:23.092Z,27.12
2022-08-09T11:43:23.057Z,27.15
2022-08-09T11:44:23.058Z,27.20
2022-08-09T11:45:23.023Z,27.26
2022-08-09T11:46:32.827Z,27.27
2022-08-09T11:47:23.990Z,27.30
2022-08-09T11:48:26.050Z,27.29
2022-08-09T11:49:28.246Z,27.30
2022-08-09T11:50:56.140Z,27.30
2022-08-09T11:53:02.090Z,27.33
2022-08-09T11:53:04.178Z,27.32
2022-08-09T11:53:58.745Z,27.36
2022-08-09T11:54:29.816Z,27.40
2022-08-09T11:55:51.666Z,27.45
2022-08-09T11:56:23.899Z,27.51
2022-08-09T11:57:47.098Z,27.52
2022-08-09T11:58:30.333Z,27.58
2022-08-09T11:59:23.872Z,27.63
2022-08-09T12:00:27.710Z,27.64
2022-08-09T12:02:01.113Z,27.67
2022-08-09T12:02:51.128Z,27.70
2022-08-09T12:03:54.703Z,27.71
2022-08-09T12:04:32.525Z,27.71
2022-08-09T12:05:23.876Z,27.70
2022-08-09T12:06:26.723Z,27.68
2022-08-09T12:07:23.823Z,27.68
2022-08-09T12:08:22.805Z,27.68
2022-08-09T12:09:22.767Z,27.67
2022-08-09T12:10:39.259Z,27.68
2022-08-09T12:11:23.741Z,27.65
2022-08-09T12:12:29.094Z,27.67
2022-08-09T12:14:10.331Z,27.65
2022-08-09T12:14:28.658Z,27.65
2022-08-09T12:15:48.445Z,27.70
2022-08-09T12:16:30.509Z,27.75
2022-08-09T12:17:34.549Z,27.80
2022-08-09T12:18:29.590Z,27.85
2022-08-09T12:19:23.675Z,27.89
2022-08-09T12:20:22.917Z,27.92
2022-08-09T12:21:28.668Z,27.95
2022-08-09T12:22:23.643Z,27.93
2022-08-09T12:23:47.397Z,27.96
2022-08-09T12:24:23.807Z,27.96
2022-08-09T12:25:34.696Z,27.98
2022-08-09T12:26:25.736Z,28.02
2022-08-09T12:29:09.976Z,28.11
2022-08-09T12:29:15.116Z,28.07
2022-08-09T12:29:33.149Z,28.15
2022-08-09T12:30:36.301Z,28.20
2022-08-09T12:31:31.168Z,28.25
2022-08-09T12:32:23.513Z,28.32
2022-08-09T12:33:22.518Z,28.41
2022-08-09T12:34:22.568Z,28.47
2022-08-09T12:35:22.496Z,28.56
2022-08-09T12:36:31.819Z,28.66
2022-08-09T12:37:24.407Z,28.78
2022-08-09T12:38:37.868Z,29.01
2022-08-09T12:39:23.492Z,29.20
2022-08-09T12:40:24.599Z,29.41
2022-08-09T12:41:22.416Z,29.59
2022-08-09T12:42:22.408Z,29.76
2022-08-09T12:43:23.361Z,29.97
2022-08-09T12:44:24.569Z,30.23
2022-08-09T12:45:34.931Z,30.46
2022-08-09T12:46:23.369Z,30.68
2022-08-09T12:47:23.039Z,30.90
2022-08-09T12:48:33.570Z,31.12
2022-08-09T12:49:23.327Z,31.31
2022-08-09T12:50:24.882Z,31.54
2022-08-09T12:51:52.524Z,31.69
2022-08-09T12:52:23.848Z,31.80
2022-08-09T12:53:28.693Z,31.92